Laurelton, Pennsylvania
Current Conditions -  °F | °C
As of 4:53 AM on Friday 19 Dec 2014 (Local Time) from KSEG Reporting Station
Overcast Overcast  
Wind Chill: 29°   Ceiling: 3200
Heat Index: 35°   Visibility: 10mi
Dew Point: 24°   Wind: 8mph
Humidity: 64%   Direction: 290°WNW
Pressure: 30.06"   Gusts: NA
Location:  40.88°N, 77.2°W
Report Text: KSEG 190953Z AUTO 29007KT 10SM OVC032 02/M04 A3006 RMK AO2 SLP182 T00171044
Loading
Personal Weather Stations






























Interactive Weather Map New forecast layout! Learn more

10-Day Weather Forecast

Advertisements
Track Severe Weather on mobile